Time;durP1;ratioP1;P1;durP2;ratioP2;P2;SDS_P1;SDS_P2;PMS_P1;PMS_P2;Temp;Humidity;BMP_temperature;BMP_pressure;BME280_temperature;BME280_humidity;BME280_pressure;Samples;Min_cycle;Max_cycle;Signal;HPM_P1;HPM_P2
2023/02/13 00:01:11;;;;;;;7.85;5.60;;;6.20;99.90;;;;;;7386791;19;20359;-88
2023/02/13 00:03:36;;;;;;;6.80;5.77;;;6.10;99.90;;;;;;7407717;19;20309;-91
2023/02/13 00:06:02;;;;;;;7.15;5.47;;;6.20;99.90;;;;;;7386023;19;20317;-80
2023/02/13 00:08:28;;;;;;;8.60;5.50;;;6.20;99.90;;;;;;7386240;19;20849;-82
2023/02/13 00:10:53;;;;;;;8.30;5.68;;;6.20;99.90;;;;;;7387678;19;20643;-83
2023/02/13 00:13:25;;;;;;;8.23;5.80;;;6.20;99.90;;;;;;7388207;19;20913;-79
2023/02/13 00:15:57;;;;;;;7.07;5.18;;;6.20;99.90;;;;;;7388370;19;20317;-82
2023/02/13 00:18:24;;;;;;;7.65;5.00;;;6.30;99.90;;;;;;7388318;19;20389;-80
2023/02/13 00:20:59;;;;;;;8.10;5.28;;;6.20;99.90;;;;;;7389454;19;20923;-81
2023/02/13 00:23:25;;;;;;;7.20;5.38;;;6.30;99.90;;;;;;7388336;19;20983;-83
2023/02/13 00:25:50;;;;;;;8.67;6.07;;;6.20;99.90;;;;;;7398987;19;20305;-90
2023/02/13 00:28:16;;;;;;;7.40;5.90;;;6.30;99.90;;;;;;7398290;19;20331;-82
2023/02/13 00:30:41;;;;;;;7.97;5.55;;;6.20;99.90;;;;;;7396048;19;20309;-88
2023/02/13 00:33:07;;;;;;;8.40;5.70;;;6.20;99.90;;;;;;7414524;19;20324;-91
2023/02/13 00:35:33;;;;;;;7.68;6.07;;;6.20;99.90;;;;;;7413190;19;20333;-91
2023/02/13 00:37:58;;;;;;;8.13;5.83;;;6.20;99.90;;;;;;7411678;19;20363;-89
2023/02/13 00:40:24;;;;;;;8.02;5.95;;;6.20;99.90;;;;;;7412583;19;20328;-89
2023/02/13 00:42:49;;;;;;;7.87;6.20;;;6.20;99.90;;;;;;7413740;19;20320;-88
2023/02/13 00:45:15;;;;;;;7.15;5.93;;;6.20;99.90;;;;;;7410722;19;20304;-87
2023/02/13 00:47:41;;;;;;;7.93;6.13;;;6.20;99.90;;;;;;7411611;19;20319;-85
2023/02/13 00:50:07;;;;;;;9.07;6.22;;;6.30;99.90;;;;;;7413004;19;20316;-90
2023/02/13 00:52:34;;;;;;;9.52;6.20;;;6.30;99.90;;;;;;7414182;19;20329;-91
2023/02/13 00:54:59;;;;;;;10.90;6.83;;;6.30;99.90;;;;;;7414097;19;20332;-90
2023/02/13 00:57:25;;;;;;;7.70;6.72;;;6.30;99.90;;;;;;7415986;19;20336;-88
2023/02/13 00:59:50;;;;;;;9.20;6.43;;;6.30;99.90;;;;;;7416293;19;20308;-89
2023/02/13 01:02:16;;;;;;;10.15;6.60;;;6.30;99.90;;;;;;7413395;19;20316;-89
2023/02/13 01:04:42;;;;;;;8.27;6.53;;;6.30;99.90;;;;;;7414358;19;20333;-87
2023/02/13 01:07:07;;;;;;;8.68;6.30;;;6.40;99.90;;;;;;7415181;19;20341;-90
2023/02/13 01:09:33;;;;;;;8.75;6.97;;;6.40;99.90;;;;;;7414697;19;20332;-90
2023/02/13 01:11:59;;;;;;;11.97;6.77;;;6.40;99.90;;;;;;7413101;19;20717;-81
2023/02/13 01:14:25;;;;;;;11.68;7.68;;;6.40;99.90;;;;;;7414362;19;20321;-90
2023/02/13 01:16:50;;;;;;;9.40;7.53;;;6.40;99.90;;;;;;7401674;19;20321;-81
2023/02/13 01:19:16;;;;;;;9.52;7.20;;;6.40;99.90;;;;;;7394141;19;20332;-90
2023/02/13 01:21:42;;;;;;;9.53;7.33;;;6.40;99.90;;;;;;7412654;19;20297;-87
2023/02/13 01:24:07;;;;;;;11.10;7.10;;;6.40;99.90;;;;;;7408791;19;20324;-90
2023/02/13 01:26:34;;;;;;;9.55;7.13;;;6.40;99.90;;;;;;7409207;19;20363;-90
2023/02/13 01:29:00;;;;;;;10.47;7.57;;;6.40;99.90;;;;;;7409776;19;20321;-92
2023/02/13 01:31:26;;;;;;;10.17;7.37;;;6.40;99.90;;;;;;7409495;19;20320;-88
2023/02/13 01:33:55;;;;;;;11.07;7.47;;;6.40;99.90;;;;;;7408303;19;20344;-87
2023/02/13 01:36:21;;;;;;;11.85;7.93;;;6.40;99.90;;;;;;7408018;19;20369;-88
2023/02/13 01:38:46;;;;;;;11.30;7.73;;;6.40;99.90;;;;;;7409275;19;20329;-92
2023/02/13 01:41:14;;;;;;;10.82;7.60;;;6.40;99.90;;;;;;7411315;19;20305;-88
2023/02/13 01:43:53;;;;;;;10.80;7.55;;;6.40;99.90;;;;;;7410003;19;20317;-86
2023/02/13 01:46:32;;;;;;;10.05;7.50;;;6.40;99.90;;;;;;7292481;19;2004193;-86
2023/02/13 01:49:02;;;;;;;10.60;7.75;;;6.30;99.90;;;;;;7386654;19;20309;-80
2023/02/13 01:51:30;;;;;;;12.13;8.93;;;6.40;99.90;;;;;;7386794;19;20329;-78
2023/02/13 01:54:05;;;;;;;12.48;8.25;;;6.40;99.90;;;;;;7385301;19;20304;-79
2023/02/13 01:56:36;;;;;;;13.32;8.20;;;6.40;99.90;;;;;;7385965;19;20799;-83
2023/02/13 01:59:06;;;;;;;11.70;7.90;;;6.30;99.90;;;;;;7384717;19;20316;-84
2023/02/13 02:01:31;;;;;;;12.45;8.55;;;6.30;99.90;;;;;;7384857;19;20324;-80
2023/02/13 02:04:06;;;;;;;11.43;7.83;;;6.30;99.90;;;;;;7383386;19;20855;-81
2023/02/13 02:06:44;;;;;;;12.48;8.80;;;6.30;99.90;;;;;;7386476;19;20327;-82
2023/02/13 02:09:13;;;;;;;12.80;8.00;;;6.30;99.90;;;;;;7385398;19;20316;-83
2023/02/13 02:11:51;;;;;;;11.30;8.07;;;6.30;99.90;;;;;;7394451;19;20309;-91
2023/02/13 02:14:17;;;;;;;12.57;8.10;;;6.40;99.90;;;;;;7305352;19;2004264;-87
2023/02/13 02:16:43;;;;;;;13.80;9.05;;;6.40;99.90;;;;;;7411168;19;20325;-89
2023/02/13 02:19:18;;;;;;;13.77;8.90;;;6.30;99.90;;;;;;7409075;19;20311;-88
2023/02/13 02:22:12;;;;;;;14.50;9.13;;;6.30;99.90;;;;;;7408991;19;20328;-92
2023/02/13 02:24:48;;;;;;;15.98;9.63;;;6.30;99.90;;;;;;7306954;19;2004213;-87
2023/02/13 02:27:33;;;;;;;13.83;9.20;;;6.40;99.90;;;;;;7408673;19;20317;-91
2023/02/13 02:30:18;;;;;;;16.10;9.67;;;6.30;99.90;;;;;;7309877;19;2004318;-86
2023/02/13 02:32:47;;;;;;;17.97;9.90;;;6.30;99.90;;;;;;7209247;19;2004524;-88
2023/02/13 02:35:25;;;;;;;15.20;9.63;;;6.30;99.90;;;;;;7412510;19;20327;-91
2023/02/13 02:38:42;;;;;;;15.80;9.63;;;6.30;99.90;;;;;;7305808;19;2004230;-81
2023/02/13 02:41:40;;;;;;;19.85;10.15;;;6.30;99.90;;;;;;7281241;19;2004211;-80
2023/02/13 02:44:28;;;;;;;17.65;10.25;;;6.30;99.90;;;;;;7281470;19;2004424;-81
2023/02/13 02:50:05;;;;;;;16.67;10.40;;;6.30;99.90;;;;;;7283763;19;2004264;-80
2023/02/13 02:52:41;;;;;;;16.25;10.07;;;6.30;99.90;;;;;;7385962;19;21176;-79
2023/02/13 02:55:21;;;;;;;14.35;9.73;;;6.20;99.90;;;;;;7385215;19;20305;-79
2023/02/13 03:06:21;;;;;;;15.10;10.48;;;6.30;99.90;;;;;;7385380;19;20384;-83
2023/02/13 03:14:24;;;;;;;18.00;10.80;;;6.30;99.90;;;;;;7282561;19;2004278;-79
2023/02/13 03:22:53;;;;;;;15.88;9.68;;;6.30;99.90;;;;;;7282362;19;2004332;-81
2023/02/13 03:25:33;;;;;;;16.15;10.10;;;6.20;99.90;;;;;;7281100;19;2004363;-81
2023/02/13 03:30:56;;;;;;;20.05;10.68;;;6.30;99.90;;;;;;7282457;19;2004437;-79
2023/02/13 03:33:36;;;;;;;13.00;9.85;;;6.30;99.90;;;;;;7383378;19;20344;-84
2023/02/13 03:39:38;;;;;;;16.33;10.15;;;6.30;99.90;;;;;;7179643;19;2004507;-79
2023/02/13 03:42:11;;;;;;;13.50;9.87;;;6.20;99.90;;;;;;7384948;19;20313;-79
2023/02/13 03:47:45;;;;;;;13.07;8.80;;;6.20;99.90;;;;;;7187592;19;2004412;-80
2023/02/13 03:50:12;;;;;;;10.40;7.85;;;6.20;99.90;;;;;;7393991;19;20312;-82
2023/02/13 03:52:45;;;;;;;10.15;6.43;;;6.10;99.90;;;;;;7390226;19;20316;-82
2023/02/13 04:01:22;;;;;;;7.85;5.10;;;6.20;99.90;;;;;;7308361;19;2004189;-90
2023/02/13 04:03:51;;;;;;;7.32;4.55;;;6.20;99.90;;;;;;7413062;19;20356;-86
2023/02/13 04:06:22;;;;;;;5.57;4.65;;;6.20;99.90;;;;;;7412696;19;20343;-89
2023/02/13 04:08:47;;;;;;;4.38;3.92;;;6.30;99.90;;;;;;7413930;19;20312;-89
2023/02/13 04:11:16;;;;;;;4.43;3.75;;;6.30;99.90;;;;;;7415123;19;20357;-88
2023/02/13 04:13:57;;;;;;;6.20;4.28;;;6.40;99.90;;;;;;7413675;19;20399;-92
2023/02/13 04:16:28;;;;;;;6.28;4.47;;;6.40;99.90;;;;;;7311664;19;2004411;-89
2023/02/13 04:18:54;;;;;;;5.00;3.90;;;6.30;99.90;;;;;;7414699;19;20301;-90
2023/02/13 04:21:19;;;;;;;4.30;3.60;;;6.30;99.90;;;;;;7412620;19;20348;-88
2023/02/13 04:23:45;;;;;;;5.10;3.83;;;6.40;99.90;;;;;;7412869;19;20328;-87
2023/02/13 04:26:15;;;;;;;4.60;3.90;;;6.50;99.90;;;;;;7412378;19;20683;-92
2023/02/13 04:28:41;;;;;;;4.18;3.35;;;6.20;99.90;;;;;;7414308;19;20452;-90
2023/02/13 04:31:06;;;;;;;4.10;3.15;;;6.20;99.90;;;;;;7411849;19;20332;-92
2023/02/13 04:33:32;;;;;;;4.00;2.70;;;6.20;99.90;;;;;;7413040;19;20317;-90
2023/02/13 04:35:58;;;;;;;5.00;2.95;;;6.20;99.90;;;;;;7413792;19;20346;-87
2023/02/13 04:38:23;;;;;;;3.53;2.93;;;6.30;99.90;;;;;;7410709;19;20321;-91
2023/02/13 04:40:49;;;;;;;3.40;3.03;;;6.30;99.90;;;;;;7407028;19;20339;-84
2023/02/13 04:43:14;;;;;;;4.27;3.27;;;6.30;99.90;;;;;;7404352;19;20345;-82
2023/02/13 04:45:40;;;;;;;3.50;2.97;;;6.10;99.90;;;;;;7413907;19;20313;-85
2023/02/13 04:48:06;;;;;;;2.90;2.63;;;6.10;99.90;;;;;;7413694;19;20316;-89
2023/02/13 04:50:31;;;;;;;2.67;2.47;;;6.10;99.90;;;;;;7414717;19;20348;-88
2023/02/13 04:52:57;;;;;;;2.80;2.50;;;6.10;99.90;;;;;;7414832;19;20727;-85
2023/02/13 04:55:23;;;;;;;3.30;2.45;;;6.10;99.90;;;;;;7413910;19;20324;-84
2023/02/13 04:57:52;;;;;;;4.25;2.47;;;6.10;99.90;;;;;;7416058;19;20327;-85
2023/02/13 05:00:19;;;;;;;2.90;2.30;;;6.10;99.90;;;;;;7414452;19;20316;-84
2023/02/13 05:02:44;;;;;;;3.67;2.60;;;6.10;99.90;;;;;;7415994;19;20341;-85
2023/02/13 05:05:10;;;;;;;3.47;2.70;;;6.10;99.90;;;;;;7408617;19;20352;-92
2023/02/13 05:07:37;;;;;;;3.20;2.33;;;6.20;99.90;;;;;;7415134;19;20332;-86
2023/02/13 05:10:03;;;;;;;2.50;2.20;;;6.10;99.90;;;;;;7410200;19;20324;-92
2023/02/13 05:12:29;;;;;;;2.25;2.05;;;6.10;99.90;;;;;;7394031;19;20316;-80
2023/02/13 05:14:55;;;;;;;3.70;2.40;;;6.20;99.90;;;;;;7389222;19;20317;-78
2023/02/13 05:17:20;;;;;;;5.35;2.30;;;6.20;99.90;;;;;;7385233;19;20352;-78
2023/02/13 05:19:46;;;;;;;2.57;2.20;;;6.20;99.90;;;;;;7388412;19;20305;-79
2023/02/13 05:24:56;;;;;;;4.63;2.43;;;6.10;99.90;;;;;;7283601;19;2004364;-81
2023/02/13 05:27:21;;;;;;;4.38;2.67;;;6.20;99.90;;;;;;7385308;19;20365;-79
2023/02/13 05:29:49;;;;;;;4.10;2.70;;;6.20;99.90;;;;;;7387979;19;21218;-77
2023/02/13 05:32:14;;;;;;;2.50;2.30;;;6.20;99.90;;;;;;7385614;19;20773;-80
2023/02/13 05:34:40;;;;;;;3.33;2.67;;;6.20;99.90;;;;;;7384648;19;20392;-81
2023/02/13 05:37:06;;;;;;;2.88;2.67;;;6.20;99.90;;;;;;7384481;19;20329;-80
2023/02/13 05:39:31;;;;;;;3.80;2.40;;;6.20;99.90;;;;;;7385362;19;20320;-81
2023/02/13 05:42:00;;;;;;;2.95;2.30;;;6.20;99.90;;;;;;7391548;19;20829;-92
2023/02/13 05:44:25;;;;;;;3.42;2.90;;;6.10;99.90;;;;;;7397388;19;20348;-82
2023/02/13 05:46:52;;;;;;;2.97;2.35;;;6.10;99.90;;;;;;7404950;19;20300;-86
2023/02/13 05:49:18;;;;;;;2.45;2.25;;;6.00;99.90;;;;;;7410281;19;20324;-89
2023/02/13 05:51:45;;;;;;;2.63;2.20;;;6.00;99.90;;;;;;7399571;19;20707;-85
2023/02/13 05:54:11;;;;;;;2.83;2.45;;;6.10;99.90;;;;;;7390898;19;20845;-80
2023/02/13 05:56:36;;;;;;;2.92;2.60;;;6.10;99.90;;;;;;7403075;19;20320;-81
2023/02/13 05:59:02;;;;;;;4.73;2.50;;;6.10;99.90;;;;;;7390767;19;20411;-81
2023/02/13 06:01:28;;;;;;;3.08;2.60;;;6.10;99.90;;;;;;7381327;19;20321;-81
2023/02/13 06:03:54;;;;;;;2.67;2.47;;;6.10;99.90;;;;;;7380027;19;20373;-81
2023/02/13 06:06:20;;;;;;;2.55;2.35;;;6.00;99.90;;;;;;7378335;19;20340;-85
2023/02/13 06:08:45;;;;;;;3.58;2.83;;;6.00;99.90;;;;;;7382525;19;20404;-82
2023/02/13 06:11:11;;;;;;;2.93;2.63;;;6.00;99.90;;;;;;7382842;19;20388;-87
2023/02/13 06:13:39;;;;;;;2.85;2.65;;;6.00;99.90;;;;;;7373110;19;20341;-79
2023/02/13 06:16:09;;;;;;;4.32;2.95;;;6.00;99.90;;;;;;7382148;19;20877;-79
2023/02/13 06:18:35;;;;;;;3.78;2.60;;;5.90;99.90;;;;;;7358251;19;20336;-80
2023/02/13 06:21:00;;;;;;;2.63;2.42;;;5.90;99.90;;;;;;7383025;19;20982;-81
2023/02/13 06:23:27;;;;;;;4.77;3.03;;;6.00;99.90;;;;;;7381035;19;20340;-82
2023/02/13 06:25:53;;;;;;;3.95;2.85;;;5.90;99.90;;;;;;7385735;19;20384;-86
2023/02/13 06:28:18;;;;;;;3.78;3.20;;;5.90;99.90;;;;;;7401313;19;20648;-82
2023/02/13 06:30:44;;;;;;;3.60;3.03;;;5.90;99.90;;;;;;7385226;19;20408;-82
2023/02/13 06:33:10;;;;;;;4.25;3.08;;;5.90;99.90;;;;;;7386785;19;20396;-80
2023/02/13 06:35:35;;;;;;;4.00;3.20;;;5.90;99.90;;;;;;7386271;19;20321;-83
2023/02/13 06:38:01;;;;;;;4.03;3.20;;;5.90;99.90;;;;;;7385226;19;20309;-79
2023/02/13 06:40:27;;;;;;;6.57;3.00;;;5.90;99.90;;;;;;7382667;19;20337;-81
2023/02/13 06:42:52;;;;;;;3.47;3.10;;;5.90;99.90;;;;;;7383143;19;20332;-83
2023/02/13 06:45:18;;;;;;;4.90;3.60;;;5.90;99.90;;;;;;7380263;19;20964;-82
2023/02/13 06:47:44;;;;;;;3.97;3.10;;;5.90;99.90;;;;;;7383460;19;20328;-78
2023/02/13 06:50:10;;;;;;;4.20;3.10;;;5.90;99.90;;;;;;7382111;19;20310;-79
2023/02/13 06:52:36;;;;;;;4.10;3.10;;;5.80;99.90;;;;;;7382504;19;20316;-78
2023/02/13 06:55:02;;;;;;;4.27;3.23;;;5.80;99.90;;;;;;7381962;19;20320;-79
2023/02/13 06:57:32;;;;;;;4.38;3.28;;;5.80;99.90;;;;;;7381429;19;20312;-80
2023/02/13 07:00:03;;;;;;;4.15;3.35;;;5.80;99.90;;;;;;7381592;19;21287;-79
2023/02/13 07:02:30;;;;;;;3.97;3.50;;;5.80;99.90;;;;;;7381408;19;20329;-80
2023/02/13 07:04:56;;;;;;;3.88;3.17;;;5.90;99.90;;;;;;7382912;19;20771;-80
2023/02/13 07:07:21;;;;;;;4.33;3.13;;;5.80;99.90;;;;;;7381414;19;20327;-81
2023/02/13 07:09:47;;;;;;;3.90;3.17;;;5.90;99.90;;;;;;7381972;19;20316;-80
2023/02/13 07:12:13;;;;;;;4.27;3.30;;;5.90;99.90;;;;;;7383783;19;20316;-80
2023/02/13 07:14:38;;;;;;;4.22;3.03;;;5.90;99.90;;;;;;7383911;19;20328;-81
2023/02/13 07:17:04;;;;;;;3.57;3.20;;;5.90;99.90;;;;;;7385419;19;20408;-81
2023/02/13 07:19:31;;;;;;;5.70;3.75;;;6.00;99.90;;;;;;7391207;19;20393;-81
2023/02/13 07:21:56;;;;;;;4.10;3.28;;;5.90;99.90;;;;;;7390124;19;20857;-79
2023/02/13 07:24:22;;;;;;;5.80;3.63;;;6.00;99.90;;;;;;7389446;19;20332;-82
2023/02/13 07:26:47;;;;;;;5.67;3.70;;;6.00;99.90;;;;;;7391072;19;20312;-81
2023/02/13 07:29:13;;;;;;;3.78;3.42;;;6.00;99.90;;;;;;7391114;19;20331;-79
2023/02/13 07:31:39;;;;;;;5.33;3.63;;;6.00;99.90;;;;;;7390088;19;20635;-79
2023/02/13 07:34:04;;;;;;;4.72;3.97;;;6.10;99.90;;;;;;7389607;19;20320;-80
2023/02/13 07:36:30;;;;;;;5.23;3.83;;;6.10;99.90;;;;;;7390029;19;20304;-79
2023/02/13 07:38:55;;;;;;;5.18;3.83;;;6.10;99.90;;;;;;7389792;19;20313;-80
2023/02/13 07:41:24;;;;;;;4.77;4.27;;;6.10;99.90;;;;;;7389202;19;20335;-81
2023/02/13 07:43:50;;;;;;;6.93;4.38;;;6.10;99.90;;;;;;7388564;19;20317;-81
2023/02/13 07:46:15;;;;;;;6.67;4.90;;;6.10;99.90;;;;;;7389978;19;20293;-83
2023/02/13 07:48:41;;;;;;;5.20;4.32;;;6.10;99.90;;;;;;7389436;19;20309;-81
2023/02/13 07:51:07;;;;;;;5.40;4.17;;;6.30;99.90;;;;;;7390885;19;20316;-78
2023/02/13 07:53:32;;;;;;;5.53;4.30;;;6.20;99.90;;;;;;7388958;19;20361;-81
2023/02/13 07:55:58;;;;;;;5.70;4.15;;;6.30;99.90;;;;;;7389325;19;20445;-79
2023/02/13 07:58:23;;;;;;;4.10;3.40;;;6.30;99.90;;;;;;7389663;19;20300;-82
2023/02/13 08:00:49;;;;;;;5.25;3.75;;;6.30;99.90;;;;;;7389235;19;20311;-79
2023/02/13 08:03:15;;;;;;;5.10;3.83;;;6.30;99.90;;;;;;7391531;19;20308;-80
2023/02/13 08:05:42;;;;;;;7.30;3.42;;;6.30;99.90;;;;;;7386513;19;20725;-83
2023/02/13 08:08:07;;;;;;;3.78;3.38;;;6.30;99.90;;;;;;7388973;19;20324;-78
2023/02/13 08:13:17;;;;;;;5.90;3.90;;;6.20;99.90;;;;;;7287452;19;2004245;-87
2023/02/13 08:15:46;;;;;;;3.75;3.17;;;6.10;99.90;;;;;;7392034;19;20325;-81
2023/02/13 08:18:11;;;;;;;3.60;3.20;;;6.10;99.90;;;;;;7387650;19;20304;-80
2023/02/13 08:20:37;;;;;;;5.90;3.90;;;6.20;99.90;;;;;;7389150;19;20373;-80
2023/02/13 08:23:06;;;;;;;5.13;4.00;;;6.20;99.90;;;;;;7390149;19;20313;-80
2023/02/13 08:25:32;;;;;;;5.20;4.10;;;6.20;99.90;;;;;;7387640;19;20334;-80
2023/02/13 08:27:59;;;;;;;5.30;4.10;;;6.30;99.90;;;;;;7393563;19;20332;-84
2023/02/13 08:30:24;;;;;;;6.90;4.30;;;6.30;99.90;;;;;;7388230;19;20317;-80
2023/02/13 08:32:50;;;;;;;7.90;4.30;;;6.40;99.90;;;;;;7388018;19;20328;-78
2023/02/13 08:35:16;;;;;;;5.97;4.40;;;6.50;99.90;;;;;;7386223;19;20860;-80
2023/02/13 08:37:41;;;;;;;6.53;4.82;;;6.40;99.90;;;;;;7384908;19;20301;-79
2023/02/13 08:40:10;;;;;;;5.87;4.93;;;6.40;99.90;;;;;;7385085;19;20315;-80
2023/02/13 08:42:36;;;;;;;6.70;5.07;;;6.50;99.90;;;;;;7382677;19;20341;-79
2023/02/13 08:45:02;;;;;;;6.45;5.38;;;6.50;99.90;;;;;;7379360;19;20348;-79
2023/02/13 08:47:28;;;;;;;11.80;7.78;;;6.40;99.90;;;;;;7381600;19;20320;-80
2023/02/13 08:49:53;;;;;;;7.87;5.83;;;6.50;99.90;;;;;;7382021;19;20316;-79
2023/02/13 08:52:19;;;;;;;6.63;5.28;;;6.50;99.90;;;;;;7381269;19;20345;-78
2023/02/13 08:54:45;;;;;;;5.67;5.03;;;6.50;99.90;;;;;;7379212;19;20916;-80
2023/02/13 08:57:10;;;;;;;6.97;5.03;;;6.50;99.90;;;;;;7379772;19;20376;-80
2023/02/13 08:59:36;;;;;;;6.57;4.93;;;6.40;99.90;;;;;;7381213;19;20355;-80
2023/02/13 09:02:01;;;;;;;7.57;5.20;;;6.40;99.90;;;;;;7381052;19;20407;-78
2023/02/13 09:04:27;;;;;;;5.28;4.70;;;6.40;99.90;;;;;;7380114;19;20309;-79
2023/02/13 09:06:53;;;;;;;8.10;4.90;;;6.50;99.90;;;;;;7379863;19;20728;-77
2023/02/13 09:09:18;;;;;;;7.75;4.90;;;6.50;99.90;;;;;;7382234;19;20305;-80
2023/02/13 09:11:44;;;;;;;5.70;4.43;;;6.60;99.90;;;;;;7384160;19;20793;-80
2023/02/13 09:14:11;;;;;;;6.68;5.15;;;6.60;99.90;;;;;;7376742;19;20834;-79
2023/02/13 09:16:36;;;;;;;5.68;4.47;;;6.60;99.90;;;;;;7378802;19;20414;-79
2023/02/13 09:19:03;;;;;;;9.23;5.85;;;6.60;99.90;;;;;;7382348;19;20341;-80
2023/02/13 09:21:30;;;;;;;6.97;4.93;;;6.60;99.90;;;;;;7381368;19;20329;-82
2023/02/13 09:23:55;;;;;;;6.82;4.97;;;6.60;99.90;;;;;;7377791;19;20365;-79
2023/02/13 09:26:21;;;;;;;7.60;5.40;;;6.70;99.90;;;;;;7378118;19;20324;-79
2023/02/13 09:28:46;;;;;;;6.15;4.88;;;6.60;99.90;;;;;;7382357;19;20350;-78
2023/02/13 09:31:18;;;;;;;5.67;4.67;;;6.60;99.90;;;;;;7382845;19;20408;-78
2023/02/13 09:34:08;;;;;;;7.35;4.65;;;6.60;99.90;;;;;;7386679;19;20333;-89
2023/02/13 09:36:35;;;;;;;7.35;5.28;;;6.70;99.90;;;;;;7338439;19;20336;-80
2023/02/13 09:39:00;;;;;;;6.63;4.78;;;6.70;99.90;;;;;;7389495;19;20870;-80
2023/02/13 09:41:35;;;;;;;9.82;7.10;;;6.70;99.90;;;;;;7396630;19;20341;-87
2023/02/13 09:44:34;;;;;;;7.10;5.90;;;6.70;99.90;;;;;;7401083;19;20344;-87
2023/02/13 09:47:31;;;;;;;9.15;6.10;;;6.80;99.90;;;;;;7295569;19;2004292;-79
2023/02/13 09:54:04;;;;;;;7.90;5.70;;;6.70;99.90;;;;;;7412055;19;20340;-88
2023/02/13 09:57:06;;;;;;;7.43;5.72;;;6.70;99.90;;;;;;7395258;19;20312;-83
2023/02/13 10:00:12;;;;;;;9.45;5.50;;;6.70;99.90;;;;;;7287337;19;2005870;-80
2023/02/13 10:02:49;;;;;;;9.07;5.23;;;6.80;99.90;;;;;;7283754;19;2004607;-84
2023/02/13 10:05:33;;;;;;;8.27;5.78;;;6.80;99.90;;;;;;7366779;19;20313;-82
2023/02/13 10:08:36;;;;;;;7.93;5.77;;;6.80;99.90;;;;;;7283162;19;2008886;-82
2023/02/13 10:11:10;;;;;;;8.20;6.03;;;6.80;99.90;;;;;;7288025;19;2004346;-80
2023/02/13 10:13:47;;;;;;;7.40;5.28;;;6.70;99.90;;;;;;7383451;19;20333;-81
2023/02/13 10:16:24;;;;;;;8.13;5.70;;;6.70;99.90;;;;;;7383572;19;20317;-86
2023/02/13 10:19:02;;;;;;;7.05;5.70;;;6.70;99.90;;;;;;7281757;19;2004385;-84
2023/02/13 10:21:30;;;;;;;6.18;4.80;;;6.80;99.90;;;;;;7386634;19;20305;-80
2023/02/13 10:24:13;;;;;;;6.55;4.97;;;6.90;99.90;;;;;;7381913;19;20373;-82
2023/02/13 10:26:44;;;;;;;8.85;6.13;;;6.90;99.90;;;;;;7381113;19;20886;-80
2023/02/13 10:32:02;;;;;;;6.28;5.25;;;6.90;99.90;;;;;;7285839;19;2004278;-79
2023/02/13 10:34:31;;;;;;;7.72;5.03;;;7.00;99.90;;;;;;7392083;19;20345;-81
2023/02/13 10:36:56;;;;;;;7.00;4.68;;;7.00;99.90;;;;;;7388157;19;20308;-82
2023/02/13 10:39:23;;;;;;;6.00;4.90;;;7.00;99.90;;;;;;7380560;19;20339;-80
2023/02/13 10:41:49;;;;;;;6.50;4.70;;;7.10;99.90;;;;;;7378123;19;20329;-80
2023/02/13 10:44:41;;;;;;;6.50;5.20;;;7.10;99.90;;;;;;7381252;19;20334;-81
2023/02/13 10:47:27;;;;;;;7.72;5.00;;;7.20;99.90;;;;;;7276280;19;2004475;-81
2023/02/13 10:50:02;;;;;;;8.85;5.60;;;7.20;99.90;;;;;;7274853;19;2004357;-80
2023/02/13 10:53:05;;;;;;;8.18;5.20;;;7.20;99.90;;;;;;7379108;19;20316;-79
2023/02/13 10:55:50;;;;;;;5.95;4.45;;;7.20;99.90;;;;;;7276581;19;2004414;-80
2023/02/13 10:58:50;;;;;;;5.90;4.40;;;7.20;99.90;;;;;;7377843;19;20646;-81
2023/02/13 11:01:36;;;;;;;5.47;4.45;;;7.20;99.90;;;;;;7276336;19;2004729;-83
2023/02/13 11:04:13;;;;;;;5.57;4.35;;;7.20;99.90;;;;;;7273082;19;2024467;-82
2023/02/13 11:06:55;;;;;;;5.53;4.30;;;7.20;99.90;;;;;;7376673;19;21273;-81
2023/02/13 11:09:21;;;;;;;4.78;3.90;;;7.20;99.90;;;;;;7275678;19;2004660;-83
2023/02/13 11:11:46;;;;;;;6.67;3.87;;;7.30;99.90;;;;;;7376854;19;20357;-80
2023/02/13 11:14:14;;;;;;;5.45;4.15;;;7.30;99.90;;;;;;7377848;19;20348;-84
2023/02/13 11:16:45;;;;;;;4.80;3.70;;;7.40;99.90;;;;;;7379411;19;20792;-81
2023/02/13 11:19:31;;;;;;;5.65;4.22;;;7.40;99.90;;;;;;7379032;19;20841;-80
2023/02/13 11:22:05;;;;;;;5.57;3.87;;;7.50;99.90;;;;;;7276840;19;2004248;-82
2023/02/13 11:24:30;;;;;;;5.25;3.83;;;7.50;99.90;;;;;;7377589;19;20648;-80
2023/02/13 11:27:07;;;;;;;5.87;3.73;;;7.60;99.90;;;;;;7378182;19;20327;-83
2023/02/13 11:29:34;;;;;;;4.78;3.10;;;7.60;99.90;;;;;;7378694;19;20324;-80
2023/02/13 11:32:13;;;;;;;4.85;3.38;;;7.60;99.90;;;;;;7378518;19;20372;-80
2023/02/13 11:34:38;;;;;;;3.72;3.10;;;7.70;99.90;;;;;;7375551;19;20446;-80
2023/02/13 11:37:13;;;;;;;4.13;3.30;;;7.60;99.90;;;;;;7377768;19;20338;-83
2023/02/13 11:39:40;;;;;;;4.47;3.08;;;7.60;99.90;;;;;;7376919;19;20382;-81
2023/02/13 11:42:26;;;;;;;3.50;2.90;;;7.70;99.90;;;;;;7376710;19;20324;-80
2023/02/13 11:44:57;;;;;;;4.77;3.27;;;7.70;99.90;;;;;;7272235;19;2004227;-78
2023/02/13 11:47:34;;;;;;;3.67;3.30;;;7.70;99.90;;;;;;7375855;19;20324;-81
2023/02/13 11:49:59;;;;;;;3.83;3.20;;;7.70;99.90;;;;;;7379372;19;20325;-81
2023/02/13 11:52:27;;;;;;;4.20;3.30;;;7.70;99.90;;;;;;7375202;19;20416;-81
2023/02/13 11:54:57;;;;;;;4.20;3.08;;;7.70;99.90;;;;;;7376716;19;20320;-80
2023/02/13 11:57:33;;;;;;;3.80;2.90;;;7.80;99.90;;;;;;7376309;19;20392;-80
2023/02/13 12:00:00;;;;;;;3.92;3.03;;;7.80;99.90;;;;;;7376049;19;20320;-79
2023/02/13 12:02:29;;;;;;;3.67;2.70;;;7.90;99.90;;;;;;7375155;19;20357;-80
2023/02/13 12:05:17;;;;;;;3.15;2.70;;;7.90;99.90;;;;;;7380116;19;20401;-80
2023/02/13 12:07:43;;;;;;;3.35;2.58;;;8.00;99.90;;;;;;7382636;19;20372;-79
2023/02/13 12:10:16;;;;;;;3.05;2.63;;;8.00;99.90;;;;;;7399388;19;20316;-81
2023/02/13 12:13:02;;;;;;;3.20;2.60;;;8.00;99.90;;;;;;7395394;19;20347;-82
2023/02/13 12:15:32;;;;;;;2.35;2.05;;;8.00;99.90;;;;;;7294073;19;2004604;-81
2023/02/13 12:18:16;;;;;;;4.75;2.83;;;8.10;99.90;;;;;;7399660;19;20320;-80
2023/02/13 12:21:02;;;;;;;2.67;2.35;;;8.10;99.90;;;;;;7399347;19;20304;-86
2023/02/13 12:24:08;;;;;;;2.50;2.30;;;8.10;99.90;;;;;;7296900;19;2004160;-84
2023/02/13 12:26:41;;;;;;;2.83;2.30;;;8.10;99.90;;;;;;7305848;19;2004307;-83
2023/02/13 12:29:30;;;;;;;2.47;2.10;;;8.20;99.90;;;;;;7406910;19;20351;-82
2023/02/13 12:32:15;;;;;;;2.63;1.98;;;8.10;99.90;;;;;;7304034;19;2018628;-87
2023/02/13 12:35:18;;;;;;;2.67;2.00;;;8.10;99.90;;;;;;7406603;19;20350;-85
2023/02/13 12:37:59;;;;;;;2.05;1.85;;;8.10;99.90;;;;;;7304933;19;2004007;-84
2023/02/13 12:41:03;;;;;;;2.35;2.15;;;8.20;99.90;;;;;;7307002;19;2004168;-85
2023/02/13 12:43:41;;;;;;;2.63;2.03;;;8.20;99.90;;;;;;7302181;19;2004321;-81
2023/02/13 12:46:16;;;;;;;3.03;2.00;;;8.30;99.90;;;;;;7407308;19;20929;-84
2023/02/13 12:49:19;;;;;;;1.80;1.70;;;8.20;99.90;;;;;;7407935;19;20325;-80
2023/02/13 12:51:51;;;;;;;1.90;1.80;;;8.20;99.90;;;;;;7307284;19;2004248;-86
2023/02/13 12:54:48;;;;;;;2.70;1.85;;;8.30;99.90;;;;;;7404657;19;20317;-79
2023/02/13 12:57:17;;;;;;;1.63;1.52;;;8.20;99.90;;;;;;7298719;19;2004165;-86
2023/02/13 12:59:46;;;;;;;1.92;1.52;;;8.20;99.90;;;;;;7407074;19;20584;-86
2023/02/13 13:02:49;;;;;;;1.67;1.40;;;8.20;99.90;;;;;;7406499;19;20345;-85
2023/02/13 13:05:26;;;;;;;1.60;1.50;;;8.20;99.90;;;;;;7306740;19;2004174;-87
2023/02/13 13:08:10;;;;;;;1.80;1.70;;;8.30;99.90;;;;;;7306276;19;2004534;-88
2023/02/13 13:11:27;;;;;;;1.98;1.60;;;8.20;99.90;;;;;;7410173;19;20324;-86
2023/02/13 13:14:12;;;;;;;2.38;1.60;;;8.10;99.90;;;;;;7199301;19;2004569;-82
2023/02/13 13:16:43;;;;;;;2.85;1.77;;;8.00;99.90;;;;;;7408005;19;20394;-85
2023/02/13 13:19:41;;;;;;;2.20;1.83;;;8.00;99.90;;;;;;7405955;19;22665;-88
2023/02/13 13:22:12;;;;;;;1.77;1.60;;;8.00;99.90;;;;;;7300059;19;2004200;-91
2023/02/13 13:24:43;;;;;;;1.90;1.70;;;7.90;99.90;;;;;;7403595;19;20324;-88
2023/02/13 13:27:18;;;;;;;1.83;1.73;;;7.80;99.90;;;;;;7405058;19;20365;-90
2023/02/13 13:29:47;;;;;;;3.67;2.38;;;7.90;99.90;;;;;;7407130;19;20339;-88
2023/02/13 13:32:16;;;;;;;3.28;2.33;;;7.90;99.90;;;;;;7405957;19;20328;-87
2023/02/13 13:34:42;;;;;;;2.53;2.20;;;7.90;99.90;;;;;;7407525;19;20321;-88
2023/02/13 13:37:29;;;;;;;2.60;2.20;;;8.00;99.90;;;;;;7407179;19;20337;-87
2023/02/13 13:40:03;;;;;;;3.40;2.42;;;7.90;99.90;;;;;;7301860;19;2004331;-85
2023/02/13 13:42:39;;;;;;;2.30;2.10;;;7.80;99.90;;;;;;7404803;19;20967;-87
2023/02/13 13:45:16;;;;;;;3.60;2.50;;;7.70;99.90;;;;;;7405325;19;20336;-87
2023/02/13 13:48:06;;;;;;;4.50;2.90;;;7.70;99.90;;;;;;7402955;19;20313;-88
2023/02/13 13:50:34;;;;;;;3.33;2.78;;;7.80;99.90;;;;;;7304269;19;2004310;-87
2023/02/13 13:53:17;;;;;;;3.53;2.83;;;7.80;99.90;;;;;;7406855;19;20332;-87
2023/02/13 13:55:46;;;;;;;4.47;3.17;;;7.80;99.90;;;;;;7407542;19;20300;-87
2023/02/13 13:58:32;;;;;;;3.67;2.50;;;7.80;99.90;;;;;;7406749;19;20319;-84
2023/02/13 14:01:17;;;;;;;3.03;2.63;;;7.80;99.90;;;;;;7300926;19;2004312;-81
2023/02/13 14:03:44;;;;;;;2.67;2.33;;;7.80;99.90;;;;;;7388953;19;20337;-83
2023/02/13 14:06:11;;;;;;;3.57;2.70;;;7.80;99.90;;;;;;7389297;19;20312;-80